YM Initiative — A8HX4 — position and weather

sailwx.info

Track history (hours):
 
Tides and Currents Weather Stations Pressure Air Temp Water Temp Dewpoint Dewpoint Depression Visibility Wind Speed Wind Dir Waves Ship Positions

YM Initiative

Last reported at 2017-Feb-17 21:24 UTC. Time now 2017-Feb-25 02:25 UTC.
Position N 24°18' E 118°21'.

Length 173 m; draft 7.7 m.

Type: Cargo ship. MMSI: 635961368.

Date/timePositionNaut miles runAvg speedWind from/ knotsBaromVisibWave heightAir tempDewpointWater temp
2017-Feb-17 21:24N 24°18' E 118°21'1213.7
2017-Feb-17 20:33N 24°21' E 118°09'9 9.1
2017-Feb-17 19:33N 24°29' E 118°04'2 0.4
2017-Feb-17 15:26N 24°31' E 118°05'0 0.1
2017-Feb-17 14:32N 24°31' E 118°05'0 0.0
2017-Feb-17 13:29N 24°31' E 118°05'0 0.0
2017-Feb-17 12:14N 24°31' E 118°05'0 0.0
2017-Feb-17 11:32N 24°31' E 118°05'0 0.1
2017-Feb-17 10:32N 24°31' E 118°05'0 0.0
2017-Feb-17 09:32N 24°31' E 118°05'  
2017-Feb-13 19:20N 22°29' E 119°44'1215.8
2017-Feb-13 18:33N 22°31' E 119°57'1211.6
2017-Feb-13 17:33N 22°32' E 120°10'9 9.2
2017-Feb-13 16:33N 22°33' E 120°19'0 0.2
2017-Feb-13 15:33N 22°33' E 120°19'0 0.0
2017-Feb-13 14:18N 22°33' E 120°19'0 0.0
2017-Feb-13 10:09N 22°33' E 120°19'0 0.0
2017-Feb-13 09:18N 22°33' E 120°19'0 0.0
2017-Feb-13 08:30N 22°33' E 120°19'7 7.8
2017-Feb-13 07:33N 22°35' E 120°11'  
Track history (hours):
 
Tides and Currents Weather Stations Pressure Air Temp Water Temp Dewpoint Dewpoint Depression Visibility Wind Speed Wind Dir Waves Ship Positions

YM Initiative

Last reported at 2017-Feb-17 21:24 UTC. Time now 2017-Feb-25 02:25 UTC.
Position N 24°18' E 118°21'.

Length 173 m; draft 7.7 m.

Type: Cargo ship. MMSI: 635961368.

Date/timePositionNaut miles runAvg speedWind from/ knotsBaromVisibWave heightAir tempDewpointWater temp
2017-Feb-17 21:24N 24°18' E 118°21'1213.7
2017-Feb-17 20:33N 24°21' E 118°09'9 9.1
2017-Feb-17 19:33N 24°29' E 118°04'2 0.4
2017-Feb-17 15:26N 24°31' E 118°05'0 0.1
2017-Feb-17 14:32N 24°31' E 118°05'0 0.0
2017-Feb-17 13:29N 24°31' E 118°05'0 0.0
2017-Feb-17 12:14N 24°31' E 118°05'0 0.0
2017-Feb-17 11:32N 24°31' E 118°05'0 0.1
2017-Feb-17 10:32N 24°31' E 118°05'0 0.0
2017-Feb-17 09:32N 24°31' E 118°05'  
2017-Feb-13 19:20N 22°29' E 119°44'1215.8
2017-Feb-13 18:33N 22°31' E 119°57'1211.6
2017-Feb-13 17:33N 22°32' E 120°10'9 9.2
2017-Feb-13 16:33N 22°33' E 120°19'0 0.2
2017-Feb-13 15:33N 22°33' E 120°19'0 0.0
2017-Feb-13 14:18N 22°33' E 120°19'0 0.0
2017-Feb-13 10:09N 22°33' E 120°19'0 0.0
2017-Feb-13 09:18N 22°33' E 120°19'0 0.0
2017-Feb-13 08:30N 22°33' E 120°19'7 7.8
2017-Feb-13 07:33N 22°35' E 120°11'  

Dump ship's entire track history